createdAt,value
2023-05-10T00:01:50.040Z,80.20
2023-05-10T00:04:28.330Z,81.50
2023-05-10T00:07:04.283Z,82.30
2023-05-10T00:09:40.986Z,83.90
2023-05-10T00:12:16.863Z,84.10
2023-05-10T00:14:52.704Z,84.60
2023-05-10T00:17:28.668Z,86.50
2023-05-10T00:20:06.064Z,86.90
2023-05-10T00:22:41.923Z,86.90
2023-05-10T00:25:17.817Z,88.00
2023-05-10T00:27:56.079Z,88.50
2023-05-10T00:30:31.942Z,88.70
2023-05-10T00:33:07.934Z,88.50
2023-05-10T00:35:43.819Z,86.90
2023-05-10T00:38:19.692Z,86.50
2023-05-10T00:40:55.785Z,86.80
2023-05-10T00:43:37.673Z,85.60
2023-05-10T00:46:15.534Z,84.90
2023-05-10T00:48:51.624Z,85.00
2023-05-10T00:51:27.489Z,85.30
2023-05-10T00:54:03.959Z,85.40
2023-05-10T00:56:40.614Z,84.40
2023-05-10T00:59:18.087Z,83.90
2023-05-10T01:01:54.649Z,84.20
2023-05-10T01:04:31.550Z,83.30
2023-05-10T01:07:07.657Z,83.10
2023-05-10T01:09:43.534Z,83.90
2023-05-10T01:12:21.179Z,83.30
2023-05-10T01:14:58.948Z,83.20
2023-05-10T01:17:36.864Z,81.50
2023-05-10T01:20:13.900Z,81.20
2023-05-10T01:23:32.131Z,79.50
2023-05-10T01:26:34.355Z,79.00
2023-05-10T01:29:22.637Z,78.50
2023-05-10T01:32:31.951Z,78.90
2023-05-10T01:35:18.494Z,78.60
2023-05-10T01:38:10.588Z,79.00
2023-05-10T01:41:06.849Z,79.10
2023-05-10T01:44:33.348Z,79.40
2023-05-10T01:47:15.619Z,79.50
2023-05-10T01:49:55.833Z,79.30
2023-05-10T01:52:38.898Z,79.10
2023-05-10T01:55:17.657Z,79.00
2023-05-10T01:58:03.997Z,78.70
2023-05-10T02:00:44.538Z,79.20
2023-05-10T02:03:25.366Z,79.50
2023-05-10T02:06:01.444Z,79.40
2023-05-10T02:08:38.199Z,79.50
2023-05-10T02:11:15.311Z,78.90
2023-05-10T02:13:52.741Z,79.00
2023-05-10T02:16:31.833Z,79.10
2023-05-10T02:19:11.493Z,78.80
2023-05-10T02:21:48.314Z,78.60
2023-05-10T02:24:26.308Z,78.30
2023-05-10T02:27:04.646Z,78.10
2023-05-10T02:29:42.333Z,78.80
2023-05-10T02:32:19.845Z,79.10
2023-05-10T02:34:56.633Z,79.00
2023-05-10T02:37:34.187Z,78.60
2023-05-10T02:40:12.085Z,78.00
2023-05-10T02:42:49.884Z,77.60
2023-05-10T02:45:30.298Z,77.80
2023-05-10T02:48:06.477Z,77.40
2023-05-10T02:50:45.972Z,77.00
2023-05-10T02:53:34.722Z,76.70
2023-05-10T02:56:26.823Z,76.60
2023-05-10T02:59:03.227Z,77.10
2023-05-10T03:01:39.478Z,77.30
2023-05-10T03:04:16.529Z,76.80
2023-05-10T03:06:52.760Z,76.60
2023-05-10T03:09:29.061Z,76.50
2023-05-10T03:12:39.976Z,75.60
2023-05-10T03:15:53.154Z,76.30
2023-05-10T03:19:10.496Z,76.40
2023-05-10T03:21:52.363Z,76.10
2023-05-10T03:24:29.799Z,75.90
2023-05-10T03:27:09.002Z,76.20
2023-05-10T03:29:47.480Z,76.70
2023-05-10T03:32:24.171Z,76.50
2023-05-10T03:35:00.246Z,76.80
2023-05-10T03:37:36.593Z,76.80
2023-05-10T03:40:12.994Z,76.80
2023-05-10T03:42:51.472Z,77.10
2023-05-10T03:45:28.099Z,76.90
2023-05-10T03:48:04.612Z,76.70
2023-05-10T03:50:41.069Z,76.50
2023-05-10T03:53:17.301Z,76.20
2023-05-10T03:55:53.403Z,75.50
2023-05-10T03:58:29.454Z,75.30
2023-05-10T04:01:06.521Z,75.00
2023-05-10T04:03:42.754Z,75.00
2023-05-10T04:06:18.844Z,74.50
2023-05-10T04:08:54.813Z,74.70
2023-05-10T04:11:31.431Z,75.20
2023-05-10T04:14:07.473Z,75.40
2023-05-10T04:16:43.663Z,75.30
2023-05-10T04:19:19.750Z,75.50
2023-05-10T04:21:55.771Z,75.70
2023-05-10T04:24:31.717Z,75.50
2023-05-10T04:27:07.838Z,75.00
2023-05-10T04:29:44.003Z,75.00
2023-05-10T04:32:21.651Z,74.70
2023-05-10T04:34:58.310Z,74.30
2023-05-10T04:37:34.200Z,73.80
2023-05-10T04:40:10.842Z,73.30
2023-05-10T04:42:47.177Z,72.90
2023-05-10T04:45:23.244Z,72.20
2023-05-10T04:47:59.205Z,72.80
2023-05-10T04:50:35.137Z,71.90
2023-05-10T04:53:11.197Z,70.10
2023-05-10T04:55:47.703Z,70.50
2023-05-10T04:58:23.670Z,70.40
2023-05-10T05:01:09.510Z,70.10
2023-05-10T05:03:45.783Z,69.30
2023-05-10T05:06:25.848Z,68.00
2023-05-10T05:09:01.840Z,68.40
2023-05-10T05:11:37.747Z,68.20
2023-05-10T05:14:14.176Z,68.10
2023-05-10T05:16:51.230Z,68.10
2023-05-10T05:19:27.127Z,68.30
2023-05-10T05:22:03.020Z,68.00
2023-05-10T05:24:42.080Z,68.10
2023-05-10T05:27:18.428Z,66.70
2023-05-10T05:29:55.266Z,66.40
2023-05-10T05:32:31.501Z,65.80
2023-05-10T05:35:07.841Z,62.40
2023-05-10T05:37:43.805Z,61.70
2023-05-10T05:40:19.776Z,60.90
2023-05-10T05:42:55.746Z,61.40
2023-05-10T05:45:31.627Z,60.20
2023-05-10T05:48:07.727Z,58.80
2023-05-10T05:50:43.615Z,58.80
2023-05-10T05:53:19.499Z,58.50
2023-05-10T05:55:58.201Z,56.60
2023-05-10T05:58:34.083Z,57.10
2023-05-10T06:01:09.960Z,57.80
2023-05-10T06:03:45.880Z,58.30
2023-05-10T06:06:21.819Z,57.20
2023-05-10T06:08:57.712Z,55.20
2023-05-10T06:11:34.156Z,54.30
2023-05-10T06:14:10.311Z,53.60
2023-05-10T06:16:46.218Z,52.50
2023-05-10T06:19:22.128Z,51.40
2023-05-10T06:21:58.013Z,52.20
2023-05-10T06:24:33.900Z,52.70
2023-05-10T06:27:09.899Z,52.30
2023-05-10T06:29:45.845Z,52.90
2023-05-10T06:32:21.722Z,53.20
2023-05-10T06:34:57.627Z,53.90
2023-05-10T06:37:33.501Z,53.00
2023-05-10T06:40:10.328Z,52.20
2023-05-10T06:42:47.302Z,51.00
2023-05-10T06:45:23.259Z,51.20
2023-05-10T06:47:59.207Z,51.60
2023-05-10T06:50:35.136Z,50.20
2023-05-10T06:53:11.036Z,49.70
2023-05-10T06:55:47.455Z,50.00
2023-05-10T06:58:23.444Z,50.70
2023-05-10T07:01:06.366Z,51.30
2023-05-10T07:03:42.419Z,50.90
2023-05-10T07:06:29.297Z,49.70
2023-05-10T07:09:08.795Z,49.80
2023-05-10T07:11:44.757Z,49.80
2023-05-10T07:14:20.616Z,48.40
2023-05-10T07:16:56.670Z,46.00
2023-05-10T07:19:33.685Z,45.80
2023-05-10T07:22:09.558Z,45.30
2023-05-10T07:24:45.580Z,44.70
2023-05-10T07:27:21.483Z,44.00
2023-05-10T07:29:57.585Z,42.90
2023-05-10T07:32:33.700Z,43.00
2023-05-10T07:35:09.951Z,41.90
2023-05-10T07:37:45.959Z,41.50
2023-05-10T07:40:22.036Z,41.60
2023-05-10T07:42:57.936Z,41.10
2023-05-10T07:45:35.001Z,41.80
2023-05-10T07:48:10.986Z,41.50
2023-05-10T07:50:46.871Z,41.40
2023-05-10T07:53:22.814Z,41.70
2023-05-10T07:55:59.493Z,40.50
2023-05-10T07:58:35.444Z,40.50
2023-05-10T08:01:11.305Z,40.10
2023-05-10T08:03:47.350Z,39.40
2023-05-10T08:06:23.353Z,39.60
2023-05-10T08:08:59.266Z,38.60
2023-05-10T08:11:35.438Z,38.40
2023-05-10T08:14:11.386Z,39.60
2023-05-10T08:16:47.769Z,38.20
2023-05-10T08:19:23.815Z,38.20
2023-05-10T08:21:59.690Z,38.70
2023-05-10T08:24:39.231Z,38.40
2023-05-10T08:27:15.143Z,38.40
2023-05-10T08:29:51.070Z,38.50
2023-05-10T08:32:26.988Z,38.60
2023-05-10T08:35:03.016Z,38.50
2023-05-10T08:37:38.921Z,37.40
2023-05-10T08:40:16.498Z,36.70
2023-05-10T08:43:09.697Z,36.50
2023-05-10T08:45:47.965Z,37.00
2023-05-10T08:48:25.847Z,37.20
2023-05-10T08:51:03.319Z,37.00
2023-05-10T08:53:39.678Z,37.30
2023-05-10T08:56:18.666Z,37.80
2023-05-10T08:58:54.691Z,37.20
2023-05-10T09:01:33.831Z,37.00
2023-05-10T09:04:09.830Z,36.30
2023-05-10T09:06:45.762Z,35.70
2023-05-10T09:09:22.875Z,36.00
2023-05-10T09:11:58.914Z,36.60
2023-05-10T09:14:36.866Z,36.60
2023-05-10T09:17:13.186Z,36.40
2023-05-10T09:19:49.226Z,36.10
2023-05-10T09:22:25.725Z,35.80
2023-05-10T09:25:14.665Z,35.40
2023-05-10T09:27:50.905Z,35.10
2023-05-10T09:30:31.797Z,35.10
2023-05-10T09:33:07.977Z,35.40
2023-05-10T09:35:43.941Z,35.30
2023-05-10T09:38:19.996Z,34.90
2023-05-10T09:40:56.313Z,34.90
2023-05-10T09:43:39.285Z,34.80
2023-05-10T09:46:16.998Z,34.00
2023-05-10T09:48:53.055Z,34.00
2023-05-10T09:51:28.944Z,33.60
2023-05-10T09:54:16.986Z,34.10
2023-05-10T09:56:52.860Z,34.50
2023-05-10T09:59:30.470Z,34.20
2023-05-10T10:02:06.643Z,34.90
2023-05-10T10:04:42.921Z,35.20
2023-05-10T10:07:25.795Z,35.10
2023-05-10T10:10:02.051Z,35.60
2023-05-10T10:12:38.729Z,35.70
2023-05-10T10:15:16.580Z,34.90
2023-05-10T10:17:55.043Z,35.00
2023-05-10T10:20:31.163Z,35.20
2023-05-10T10:23:07.078Z,34.90
2023-05-10T10:25:45.335Z,35.00
2023-05-10T10:28:28.483Z,34.90
2023-05-10T10:31:37.919Z,35.10
2023-05-10T10:34:34.215Z,35.40
2023-05-10T10:37:10.101Z,35.30
2023-05-10T10:39:46.034Z,35.30
2023-05-10T10:42:48.107Z,35.10
2023-05-10T10:45:25.770Z,34.90
2023-05-10T10:48:23.535Z,34.90
2023-05-10T10:50:59.486Z,34.10
2023-05-10T10:53:35.431Z,34.00
2023-05-10T10:56:16.286Z,34.80
2023-05-10T10:58:54.482Z,33.90
2023-05-10T11:01:36.472Z,33.10
2023-05-10T11:04:12.462Z,32.40
2023-05-10T11:06:48.461Z,32.10
2023-05-10T11:09:26.141Z,32.20
2023-05-10T11:12:09.957Z,31.30
2023-05-10T11:14:51.837Z,31.60
2023-05-10T11:17:31.486Z,31.40
2023-05-10T11:20:11.794Z,31.90
2023-05-10T11:22:52.925Z,32.00
2023-05-10T11:25:29.194Z,31.80
2023-05-10T11:28:06.328Z,31.90
2023-05-10T11:30:44.987Z,31.60
2023-05-10T11:33:21.239Z,31.40
2023-05-10T11:35:57.204Z,32.00
2023-05-10T11:38:34.265Z,31.40
2023-05-10T11:41:12.427Z,31.30
2023-05-10T11:43:50.892Z,31.60
2023-05-10T11:46:29.514Z,32.00
2023-05-10T11:49:08.753Z,31.80
2023-05-10T11:51:44.772Z,31.50
2023-05-10T11:54:20.701Z,31.00
2023-05-10T11:56:56.570Z,30.80
2023-05-10T11:59:32.507Z,30.80
2023-05-10T12:02:08.695Z,30.80
2023-05-10T12:04:44.772Z,30.80
2023-05-10T12:07:20.807Z,31.30
2023-05-10T12:10:18.466Z,31.50
2023-05-10T12:12:54.770Z,31.30
2023-05-10T12:15:30.660Z,31.50
2023-05-10T12:18:06.882Z,31.60
2023-05-10T12:20:43.474Z,31.70
2023-05-10T12:23:21.171Z,32.10
2023-05-10T12:26:05.206Z,32.30
2023-05-10T12:28:41.117Z,32.00
2023-05-10T12:31:17.203Z,31.40
2023-05-10T12:33:53.434Z,30.60
2023-05-10T12:36:29.445Z,30.90
2023-05-10T12:39:05.897Z,31.30
2023-05-10T12:41:43.636Z,30.80
2023-05-10T12:44:19.932Z,30.30
2023-05-10T12:46:55.894Z,30.00
2023-05-10T12:49:31.943Z,30.10
2023-05-10T12:52:07.968Z,30.10
2023-05-10T12:54:44.425Z,29.90
2023-05-10T12:57:22.082Z,30.30
2023-05-10T12:59:58.265Z,30.20
2023-05-10T13:02:34.332Z,30.00
2023-05-10T13:05:12.218Z,29.70
2023-05-10T13:07:48.282Z,30.00
2023-05-10T13:10:24.865Z,30.00
2023-05-10T13:13:01.020Z,30.40
2023-05-10T13:15:37.086Z,30.00
2023-05-10T13:18:13.203Z,30.20
2023-05-10T13:20:50.553Z,30.00
2023-05-10T13:23:26.561Z,30.10
2023-05-10T13:26:02.586Z,30.00
2023-05-10T13:28:39.805Z,30.10
2023-05-10T13:31:16.007Z,29.70
2023-05-10T13:33:52.250Z,30.10
2023-05-10T13:36:28.493Z,30.00
2023-05-10T13:39:06.232Z,30.30
2023-05-10T13:41:42.319Z,30.10
2023-05-10T13:44:18.248Z,30.40
2023-05-10T13:46:54.251Z,30.40
2023-05-10T13:49:30.186Z,30.40
2023-05-10T13:52:07.818Z,30.50
2023-05-10T13:54:43.794Z,30.50
2023-05-10T13:57:24.047Z,30.40
2023-05-10T14:00:00.169Z,30.20
2023-05-10T14:02:36.435Z,30.50
2023-05-10T14:05:12.907Z,30.00
2023-05-10T14:07:48.936Z,29.50
2023-05-10T14:10:24.847Z,29.40
2023-05-10T14:13:00.826Z,29.30
2023-05-10T14:15:36.833Z,29.40
2023-05-10T14:18:12.776Z,29.20
2023-05-10T14:20:48.729Z,29.00
2023-05-10T14:23:25.536Z,29.00
2023-05-10T14:26:01.572Z,29.10
2023-05-10T14:28:40.706Z,29.30
2023-05-10T14:31:18.071Z,29.10
2023-05-10T14:33:54.603Z,29.50
2023-05-10T14:36:30.661Z,28.60
2023-05-10T14:39:07.581Z,28.50
2023-05-10T14:41:45.503Z,28.40
2023-05-10T14:44:21.874Z,28.70
2023-05-10T14:46:57.871Z,28.90
2023-05-10T14:49:33.846Z,29.00
2023-05-10T14:52:13.112Z,29.40
2023-05-10T14:54:49.182Z,29.50
2023-05-10T14:57:25.204Z,29.40
2023-05-10T15:00:01.197Z,29.30
2023-05-10T15:02:37.710Z,29.20
2023-05-10T15:05:14.917Z,29.40
2023-05-10T15:07:51.282Z,29.70
2023-05-10T15:10:27.194Z,29.40
2023-05-10T15:13:05.183Z,29.30
2023-05-10T15:15:41.151Z,29.50
2023-05-10T15:18:17.557Z,29.50
2023-05-10T15:20:53.458Z,29.20
2023-05-10T15:23:30.755Z,29.50
2023-05-10T15:26:06.905Z,29.50
2023-05-10T15:28:42.869Z,29.50
2023-05-10T15:31:18.802Z,29.60
2023-05-10T15:34:02.138Z,29.70
2023-05-10T15:36:38.048Z,29.40
2023-05-10T15:39:14.084Z,29.60
2023-05-10T15:41:49.986Z,29.40
2023-05-10T15:44:25.870Z,29.10
2023-05-10T15:47:03.811Z,29.20
2023-05-10T15:49:39.745Z,29.40
2023-05-10T15:52:15.728Z,29.60
2023-05-10T15:54:52.022Z,29.70
2023-05-10T15:57:27.951Z,29.60
2023-05-10T16:00:05.159Z,29.70
2023-05-10T16:02:47.987Z,29.70
2023-05-10T16:05:24.724Z,29.90
2023-05-10T16:08:01.824Z,30.00
2023-05-10T16:10:38.043Z,29.70
2023-05-10T16:13:15.114Z,29.90
2023-05-10T16:15:51.004Z,30.10
2023-05-10T16:18:27.045Z,29.40
2023-05-10T16:21:03.298Z,29.30
2023-05-10T16:23:40.175Z,29.60
2023-05-10T16:26:16.104Z,29.60
2023-05-10T16:28:52.024Z,29.80
2023-05-10T16:31:28.021Z,30.00
2023-05-10T16:34:04.164Z,30.30
2023-05-10T16:36:40.084Z,30.30
2023-05-10T16:39:16.556Z,29.50
2023-05-10T16:41:52.520Z,29.40
2023-05-10T16:44:28.662Z,29.40
2023-05-10T16:47:04.541Z,29.60
2023-05-10T16:49:40.628Z,29.60
2023-05-10T16:52:16.547Z,29.60
2023-05-10T16:54:55.296Z,29.80
2023-05-10T16:57:32.895Z,29.80
2023-05-10T17:00:11.947Z,29.80
2023-05-10T17:02:48.564Z,29.90
2023-05-10T17:05:24.633Z,30.00
2023-05-10T17:08:00.950Z,30.30
2023-05-10T17:10:39.960Z,30.50
2023-05-10T17:13:17.073Z,30.70
2023-05-10T17:15:53.048Z,30.80
2023-05-10T17:18:29.213Z,30.90
2023-05-10T17:21:05.142Z,30.80
2023-05-10T17:23:41.084Z,31.00
2023-05-10T17:26:17.300Z,31.00
2023-05-10T17:28:54.570Z,31.00
2023-05-10T17:31:30.537Z,31.00
2023-05-10T17:34:06.445Z,31.30
2023-05-10T17:36:42.783Z,31.30
2023-05-10T17:39:18.654Z,31.40
2023-05-10T17:41:54.555Z,31.50
2023-05-10T17:44:30.473Z,31.30
2023-05-10T17:47:06.480Z,31.40
2023-05-10T17:49:42.506Z,31.50
2023-05-10T17:52:18.527Z,31.60
2023-05-10T17:54:54.402Z,31.60
2023-05-10T17:57:30.885Z,31.70
2023-05-10T18:00:09.095Z,31.50
2023-05-10T18:02:45.110Z,31.70
2023-05-10T18:05:21.495Z,31.70
2023-05-10T18:07:57.837Z,31.60
2023-05-10T18:10:33.891Z,31.30
2023-05-10T18:13:09.835Z,31.60
2023-05-10T18:15:45.829Z,31.70
2023-05-10T18:18:21.869Z,31.80
2023-05-10T18:20:58.314Z,31.80
2023-05-10T18:23:34.218Z,31.90
2023-05-10T18:26:10.140Z,32.10
2023-05-10T18:28:46.027Z,32.20
2023-05-10T18:31:22.098Z,32.40
2023-05-10T18:33:58.067Z,32.50
2023-05-10T18:36:34.452Z,32.70
2023-05-10T18:39:11.698Z,33.10
2023-05-10T18:41:47.787Z,33.10
2023-05-10T18:44:26.382Z,32.90
2023-05-10T18:47:02.320Z,32.90
2023-05-10T18:49:38.864Z,32.90
2023-05-10T18:52:16.070Z,32.90
2023-05-10T18:54:52.683Z,32.90
2023-05-10T18:57:28.599Z,32.50
2023-05-10T19:00:05.340Z,32.60
2023-05-10T19:02:41.555Z,32.80
2023-05-10T19:05:17.767Z,32.70
2023-05-10T19:07:53.925Z,32.90
2023-05-10T19:10:29.832Z,32.80
2023-05-10T19:13:05.868Z,33.10
2023-05-10T19:15:41.904Z,33.00
2023-05-10T19:18:19.062Z,32.90
2023-05-10T19:20:56.566Z,33.10
2023-05-10T19:23:33.686Z,33.40
2023-05-10T19:26:11.247Z,33.50
2023-05-10T19:28:47.362Z,33.60
2023-05-10T19:31:24.414Z,33.80
2023-05-10T19:34:01.012Z,33.80
2023-05-10T19:36:37.114Z,33.90
2023-05-10T19:39:13.262Z,34.00
2023-05-10T19:41:49.905Z,34.10
2023-05-10T19:44:26.254Z,34.50
2023-05-10T19:47:04.589Z,34.40
2023-05-10T19:49:40.705Z,34.50
2023-05-10T19:52:16.724Z,34.70
2023-05-10T19:54:52.906Z,34.90
2023-05-10T19:57:28.867Z,34.90
2023-05-10T20:00:08.220Z,35.00
2023-05-10T20:02:47.175Z,35.00
2023-05-10T20:05:23.656Z,35.10
2023-05-10T20:07:59.686Z,35.10
2023-05-10T20:10:35.574Z,35.30
2023-05-10T20:13:11.602Z,35.30
2023-05-10T20:15:47.553Z,35.40
2023-05-10T20:18:23.903Z,35.50
2023-05-10T20:21:00.916Z,35.70
2023-05-10T20:23:37.231Z,35.80
2023-05-10T20:26:13.138Z,35.90
2023-05-10T20:28:49.106Z,36.00
2023-05-10T20:31:25.153Z,36.20
2023-05-10T20:34:01.072Z,36.30
2023-05-10T20:36:37.169Z,36.40
2023-05-10T20:39:13.046Z,36.40
2023-05-10T20:41:49.497Z,36.50
2023-05-10T20:44:25.443Z,36.60
2023-05-10T20:47:01.486Z,36.70
2023-05-10T20:49:38.030Z,36.70
2023-05-10T20:52:13.999Z,36.90
2023-05-10T20:54:50.061Z,36.80
2023-05-10T20:57:26.169Z,36.80
2023-05-10T21:00:04.248Z,36.70
2023-05-10T21:02:46.239Z,36.70
2023-05-10T21:05:22.697Z,36.70
2023-05-10T21:07:58.609Z,36.80
2023-05-10T21:10:34.687Z,36.80
2023-05-10T21:13:10.684Z,36.40
2023-05-10T21:15:46.858Z,36.30
2023-05-10T21:18:22.858Z,36.20
2023-05-10T21:20:59.248Z,36.00
2023-05-10T21:23:35.209Z,36.00
2023-05-10T21:26:11.354Z,36.10
2023-05-10T21:28:47.298Z,36.50
2023-05-10T21:31:23.226Z,36.30
2023-05-10T21:33:59.169Z,36.30
2023-05-10T21:36:35.088Z,36.30
2023-05-10T21:39:11.604Z,36.40
2023-05-10T21:41:47.484Z,36.50
2023-05-10T21:44:23.470Z,36.50
2023-05-10T21:46:59.390Z,36.50
2023-05-10T21:49:35.561Z,36.50
2023-05-10T21:52:11.747Z,36.70
2023-05-10T21:54:48.570Z,36.80
2023-05-10T21:57:24.510Z,36.80
2023-05-10T22:00:00.427Z,36.90
2023-05-10T22:02:36.651Z,36.80
2023-05-10T22:05:12.719Z,36.90
2023-05-10T22:07:48.688Z,37.00
2023-05-10T22:10:24.836Z,37.00
2023-05-10T22:13:01.007Z,37.00
2023-05-10T22:15:36.960Z,37.10
2023-05-10T22:18:13.013Z,37.10
2023-05-10T22:20:48.907Z,37.30
2023-05-10T22:23:24.912Z,37.30
2023-05-10T22:26:04.591Z,37.40
2023-05-10T22:28:40.628Z,37.20
2023-05-10T22:31:16.750Z,37.30
2023-05-10T22:33:52.675Z,37.40
2023-05-10T22:36:29.830Z,37.30
2023-05-10T22:39:05.782Z,37.50
2023-05-10T22:41:41.715Z,37.60
2023-05-10T22:44:17.673Z,37.70
2023-05-10T22:46:53.603Z,37.80
2023-05-10T22:49:29.507Z,37.80
2023-05-10T22:52:05.353Z,37.80
2023-05-10T22:54:41.410Z,37.80
2023-05-10T22:57:17.339Z,37.90
2023-05-10T22:59:53.348Z,38.00
2023-05-10T23:02:29.281Z,38.10
2023-05-10T23:05:06.997Z,38.20
2023-05-10T23:07:43.023Z,38.10
2023-05-10T23:10:20.090Z,38.30
2023-05-10T23:12:56.168Z,38.40
2023-05-10T23:15:36.149Z,38.40
2023-05-10T23:18:12.836Z,38.60
2023-05-10T23:20:48.755Z,38.70
2023-05-10T23:23:24.789Z,38.80
2023-05-10T23:26:01.618Z,38.90
2023-05-10T23:28:37.954Z,38.90
2023-05-10T23:31:13.868Z,39.00
2023-05-10T23:33:49.743Z,39.10
2023-05-10T23:36:25.794Z,39.20
2023-05-10T23:39:01.672Z,39.40
2023-05-10T23:41:38.148Z,39.50
2023-05-10T23:44:14.042Z,39.60
2023-05-10T23:46:49.959Z,39.80
2023-05-10T23:49:29.387Z,40.00
2023-05-10T23:52:08.818Z,40.20
2023-05-10T23:54:45.937Z,40.40
2023-05-10T23:57:22.097Z,40.40
2023-05-10T23:59:58.030Z,40.60
